createdAt,value
2023-05-20T00:00:55.701Z,13.99
2023-05-20T00:04:20.901Z,14
2023-05-20T00:07:46.049Z,14.01
2023-05-20T00:11:11.257Z,14
2023-05-20T00:14:36.477Z,14.01
2023-05-20T00:18:01.712Z,14.03
2023-05-20T00:21:26.873Z,14.02
2023-05-20T00:24:52.102Z,13.99
2023-05-20T00:28:17.314Z,13.97
2023-05-20T00:31:42.542Z,13.93
2023-05-20T00:35:07.767Z,13.89
2023-05-20T00:38:32.955Z,13.89
2023-05-20T00:41:58.220Z,13.9
2023-05-20T00:45:23.390Z,13.92
2023-05-20T00:48:48.637Z,13.92
2023-05-20T00:52:13.901Z,13.92
2023-05-20T00:55:39.109Z,13.9
2023-05-20T00:59:04.343Z,13.83
2023-05-20T01:02:29.590Z,13.8
2023-05-20T01:05:54.728Z,13.83
2023-05-20T01:09:19.990Z,13.78
2023-05-20T01:12:45.102Z,13.73
2023-05-20T01:16:10.378Z,13.63
2023-05-20T01:19:35.556Z,13.59
2023-05-20T01:23:00.755Z,13.54
2023-05-20T01:26:26.000Z,13.51
2023-05-20T01:29:51.203Z,13.47
2023-05-20T01:33:16.410Z,13.44
2023-05-20T01:36:41.614Z,13.41
2023-05-20T01:40:06.842Z,13.41
2023-05-20T01:43:32.119Z,13.38
2023-05-20T01:46:57.357Z,13.36
2023-05-20T01:50:22.474Z,13.36
2023-05-20T01:53:47.680Z,13.36
2023-05-20T01:57:12.886Z,13.33
2023-05-20T02:00:38.138Z,13.3
2023-05-20T02:04:03.301Z,13.3
2023-05-20T02:07:28.503Z,13.3
2023-05-20T02:10:53.702Z,13.3
2023-05-20T02:14:18.908Z,13.25
2023-05-20T02:17:44.183Z,13.25
2023-05-20T02:21:09.303Z,13.28
2023-05-20T02:24:34.520Z,13.26
2023-05-20T02:27:59.705Z,13.22
2023-05-20T02:31:24.984Z,13.18
2023-05-20T02:34:50.219Z,13.16
2023-05-20T02:38:15.354Z,13.14
2023-05-20T02:41:40.624Z,13.1
2023-05-20T02:45:05.790Z,13.1
2023-05-20T02:48:30.986Z,13.05
2023-05-20T02:51:56.247Z,13.01
2023-05-20T02:55:21.445Z,12.98
2023-05-20T02:58:46.642Z,12.97
2023-05-20T03:02:11.846Z,12.96
2023-05-20T03:05:37.040Z,12.92
2023-05-20T03:09:02.308Z,12.87
2023-05-20T03:12:27.464Z,12.84
2023-05-20T03:15:52.690Z,12.83
2023-05-20T03:19:17.904Z,12.8
2023-05-20T03:22:43.102Z,12.78
2023-05-20T03:26:08.309Z,12.77
2023-05-20T03:29:33.456Z,12.73
2023-05-20T03:32:58.726Z,12.71
2023-05-20T03:36:23.915Z,12.72
2023-05-20T03:39:49.136Z,12.68
2023-05-20T03:43:14.390Z,12.67
2023-05-20T03:46:39.569Z,12.66
2023-05-20T03:50:04.770Z,12.64
2023-05-20T03:53:29.984Z,12.59
2023-05-20T03:56:55.196Z,12.57
2023-05-20T04:00:20.413Z,12.55
2023-05-20T04:03:45.693Z,12.51
2023-05-20T04:07:10.812Z,12.48
2023-05-20T04:10:36.032Z,12.5
2023-05-20T04:14:01.272Z,12.52
2023-05-20T04:17:26.566Z,12.55
2023-05-20T04:20:51.699Z,12.56
2023-05-20T04:24:16.909Z,12.57
2023-05-20T04:27:42.128Z,12.59
2023-05-20T04:31:07.371Z,12.61
2023-05-20T04:34:32.591Z,12.62
2023-05-20T04:37:57.790Z,12.62
2023-05-20T04:41:23.006Z,12.62
2023-05-20T04:44:48.212Z,12.57
2023-05-20T04:48:13.417Z,12.59
2023-05-20T04:51:38.648Z,12.6
2023-05-20T04:55:03.848Z,12.6
2023-05-20T04:58:29.079Z,12.6
2023-05-20T05:01:54.426Z,12.61
2023-05-20T05:05:19.528Z,12.64
2023-05-20T05:08:44.785Z,12.65
2023-05-20T05:12:10.241Z,12.68
2023-05-20T05:15:35.728Z,12.71
2023-05-20T05:19:00.711Z,12.74
2023-05-20T05:22:25.922Z,12.73
2023-05-20T05:25:51.183Z,12.7
2023-05-20T05:29:16.356Z,12.67
2023-05-20T05:32:41.618Z,12.64
2023-05-20T05:36:06.713Z,12.65
2023-05-20T05:39:31.924Z,12.72
2023-05-20T05:42:57.163Z,12.78
2023-05-20T05:46:22.376Z,12.87
2023-05-20T05:49:47.622Z,12.95
2023-05-20T05:53:12.834Z,13
2023-05-20T05:56:38.079Z,13.05
2023-05-20T06:00:03.334Z,13.12
2023-05-20T06:03:28.558Z,13.2
2023-05-20T06:06:53.737Z,13.29
2023-05-20T06:10:18.988Z,13.32
2023-05-20T06:13:44.203Z,13.38
2023-05-20T06:17:09.469Z,13.36
2023-05-20T06:20:34.705Z,13.33
2023-05-20T06:23:59.917Z,13.31
2023-05-20T06:27:25.198Z,13.36
2023-05-20T06:30:50.473Z,13.4
2023-05-20T06:34:15.734Z,13.44
2023-05-20T06:37:40.931Z,13.48
2023-05-20T06:41:06.175Z,13.54
2023-05-20T06:44:31.393Z,13.6
2023-05-20T06:47:56.683Z,13.62
2023-05-20T06:51:21.869Z,13.67
2023-05-20T06:54:47.164Z,13.76
2023-05-20T06:58:12.434Z,13.8
2023-05-20T07:01:37.739Z,13.81
2023-05-20T07:05:02.892Z,13.84
2023-05-20T07:08:28.140Z,13.86
2023-05-20T07:11:53.377Z,13.87
2023-05-20T07:15:18.593Z,13.89
2023-05-20T07:18:43.869Z,13.88
2023-05-20T07:22:09.002Z,13.91
2023-05-20T07:25:34.465Z,13.94
2023-05-20T07:28:59.456Z,13.97
2023-05-20T07:32:24.681Z,14
2023-05-20T07:35:49.892Z,14.01
2023-05-20T07:39:15.353Z,13.98
2023-05-20T07:42:40.316Z,13.96
2023-05-20T07:46:05.539Z,13.95
2023-05-20T07:49:30.776Z,13.93
2023-05-20T07:52:56.897Z,13.93
2023-05-20T07:56:21.286Z,13.97
2023-05-20T07:59:46.589Z,14.02
2023-05-20T08:03:11.893Z,14.07
2023-05-20T08:06:36.952Z,14.14
2023-05-20T08:10:02.146Z,14.19
2023-05-20T08:13:27.351Z,14.22
2023-05-20T08:16:54.735Z,14.26
2023-05-20T08:20:17.785Z,14.3
2023-05-20T08:23:43.054Z,14.32
2023-05-20T08:27:08.381Z,14.4
2023-05-20T08:30:33.561Z,14.42
2023-05-20T08:33:58.863Z,14.46
2023-05-20T08:37:24.070Z,14.54
2023-05-20T08:40:49.317Z,14.62
2023-05-20T08:44:14.540Z,14.65
2023-05-20T08:47:39.791Z,14.74
2023-05-20T08:51:05.093Z,14.82
2023-05-20T08:54:30.220Z,14.86
2023-05-20T08:57:55.453Z,14.89
2023-05-20T09:01:20.676Z,14.92
2023-05-20T09:04:46.027Z,15.01
2023-05-20T09:08:11.316Z,15.07
2023-05-20T09:11:36.479Z,15.15
2023-05-20T09:15:01.729Z,15.26
2023-05-20T09:18:26.967Z,15.37
2023-05-20T09:21:52.180Z,15.48
2023-05-20T09:25:17.405Z,15.55
2023-05-20T09:28:42.602Z,15.61
2023-05-20T09:32:07.919Z,15.74
2023-05-20T09:35:33.257Z,15.94
2023-05-20T09:38:58.285Z,16.030001
2023-05-20T09:42:23.505Z,16.040001
2023-05-20T09:45:48.796Z,16.129999
2023-05-20T09:49:13.967Z,16.24
2023-05-20T09:52:39.232Z,16.35
2023-05-20T09:56:04.512Z,16.4
2023-05-20T09:59:29.726Z,16.469999
2023-05-20T10:02:55.110Z,16.52
2023-05-20T10:06:20.184Z,16.59
2023-05-20T10:09:45.433Z,16.709999
2023-05-20T10:13:10.852Z,16.790001
2023-05-20T10:16:36.094Z,16.889999
2023-05-20T10:20:01.385Z,16.93
2023-05-20T10:23:26.638Z,16.92
2023-05-20T10:26:51.886Z,16.889999
2023-05-20T10:30:17.186Z,16.93
2023-05-20T10:33:42.439Z,16.93
2023-05-20T10:37:07.780Z,16.959999
2023-05-20T10:40:33.276Z,16.940001
2023-05-20T10:43:58.271Z,16.91
2023-05-20T10:47:25.699Z,16.940001
2023-05-20T10:50:48.789Z,17
2023-05-20T10:54:13.954Z,17.190001
2023-05-20T10:57:39.224Z,17.379999
2023-05-20T11:01:04.519Z,17.58
2023-05-20T11:04:29.739Z,17.700001
2023-05-20T11:07:55.874Z,17.77
2023-05-20T11:11:21.150Z,17.84
2023-05-20T11:14:46.339Z,17.92
2023-05-20T11:18:11.567Z,17.99
2023-05-20T11:21:36.760Z,18.08
2023-05-20T11:25:02.026Z,18.190001
2023-05-20T11:28:27.193Z,18.299999
2023-05-20T11:31:52.464Z,18.360001
2023-05-20T11:35:17.628Z,18.4
2023-05-20T11:38:42.859Z,18.43
2023-05-20T11:42:08.201Z,18.52
2023-05-20T11:45:33.265Z,18.690001
2023-05-20T11:48:58.505Z,18.84
2023-05-20T11:52:23.707Z,18.92
2023-05-20T11:55:48.936Z,18.92
2023-05-20T11:59:14.135Z,19.059999
2023-05-20T12:02:39.397Z,19.17
2023-05-20T12:06:04.536Z,19.120001
2023-05-20T12:09:29.850Z,19.01
2023-05-20T12:12:55.057Z,18.870001
2023-05-20T12:16:20.315Z,18.700001
2023-05-20T12:19:45.632Z,18.629999
2023-05-20T12:23:10.729Z,18.639999
2023-05-20T12:26:35.964Z,18.690001
2023-05-20T12:30:01.142Z,18.76
2023-05-20T12:33:26.452Z,18.860001
2023-05-20T12:36:51.694Z,19.15
2023-05-20T12:40:17.054Z,19.440001
2023-05-20T12:43:42.298Z,19.48
2023-05-20T12:47:07.612Z,19.48
2023-05-20T12:50:32.843Z,19.450001
2023-05-20T12:53:57.936Z,19.360001
2023-05-20T12:57:23.160Z,19.33
2023-05-20T13:00:48.453Z,19.440001
2023-05-20T13:04:13.624Z,19.65
2023-05-20T13:07:38.870Z,19.84
2023-05-20T13:11:04.102Z,19.860001
2023-05-20T13:14:29.412Z,19.860001
2023-05-20T13:17:54.684Z,19.91
2023-05-20T13:21:19.873Z,19.940001
2023-05-20T13:24:45.106Z,19.959999
2023-05-20T13:28:10.309Z,19.969999
2023-05-20T13:31:35.535Z,19.98
2023-05-20T13:35:00.718Z,19.940001
2023-05-20T13:38:25.941Z,19.98
2023-05-20T13:41:51.206Z,20.059999
2023-05-20T13:45:16.373Z,20.09
2023-05-20T13:48:41.629Z,20.110001
2023-05-20T13:52:06.893Z,20.030001
2023-05-20T13:55:32.081Z,19.950001
2023-05-20T13:58:57.338Z,19.860001
2023-05-20T14:02:22.524Z,19.889999
2023-05-20T14:05:47.847Z,20.02
2023-05-20T14:09:13.129Z,20.18
2023-05-20T14:12:38.335Z,20.27
2023-05-20T14:16:30.145Z,20.43
2023-05-20T14:20:03.722Z,20.530001
2023-05-20T14:23:28.917Z,20.690001
2023-05-20T14:26:54.129Z,20.76
2023-05-20T14:30:19.314Z,20.780001
2023-05-20T14:33:44.569Z,20.75
2023-05-20T14:37:09.802Z,20.719999
2023-05-20T14:40:35.133Z,20.65
2023-05-20T14:44:00.178Z,20.530001
2023-05-20T14:47:25.406Z,20.33
2023-05-20T14:50:50.571Z,20.190001
2023-05-20T14:54:16.257Z,20.110001
2023-05-20T14:57:41.472Z,20.07
2023-05-20T15:01:06.690Z,20.129999
2023-05-20T15:04:31.837Z,20.27
2023-05-20T15:07:57.057Z,20.370001
2023-05-20T15:11:22.255Z,20.440001
2023-05-20T15:45:50.787Z,18.639999
2023-05-20T15:49:15.928Z,19.6
2023-05-20T15:52:41.167Z,19.879999
2023-05-20T15:56:06.370Z,20.120001
2023-05-20T15:59:31.576Z,20.34
2023-05-20T16:02:56.888Z,20.52
2023-05-20T16:06:21.958Z,20.66
2023-05-20T16:09:47.160Z,20.809999
2023-05-20T16:13:12.318Z,20.879999
2023-05-20T16:16:37.640Z,20.84
2023-05-20T16:20:02.763Z,20.790001
2023-05-20T16:23:27.981Z,20.73
2023-05-20T16:26:53.229Z,20.65
2023-05-20T16:30:18.448Z,20.57
2023-05-20T16:33:43.676Z,20.49
2023-05-20T16:37:08.911Z,20.43
2023-05-20T16:40:34.421Z,20.4
2023-05-20T16:43:59.294Z,20.35
2023-05-20T16:47:24.495Z,20.32
2023-05-20T16:50:49.674Z,20.290001
2023-05-20T16:54:14.919Z,20.280001
2023-05-20T16:57:40.151Z,20.24
2023-05-20T17:01:05.400Z,20.219999
2023-05-20T17:04:30.762Z,20.200001
2023-05-20T17:07:55.797Z,20.190001
2023-05-20T17:11:21.057Z,20.17
2023-05-20T17:14:46.250Z,20.139999
2023-05-20T17:18:11.457Z,20.120001
2023-05-20T17:21:36.598Z,20.120001
2023-05-20T17:25:01.838Z,20.129999
2023-05-20T17:28:27.082Z,20.129999
2023-05-20T17:31:52.292Z,20.120001
2023-05-20T17:35:17.441Z,20.110001
2023-05-20T17:38:42.650Z,20.1
2023-05-20T17:42:07.839Z,20.08
2023-05-20T17:45:33.117Z,20.07
2023-05-20T17:48:58.278Z,20.040001
2023-05-20T17:52:23.500Z,20.040001
2023-05-20T17:55:48.667Z,20.040001
2023-05-20T17:59:13.889Z,20.02
2023-05-20T18:02:39.168Z,20.01
2023-05-20T18:06:04.276Z,20
2023-05-20T18:09:29.536Z,19.98
2023-05-20T18:12:54.716Z,20.01
2023-05-20T18:16:19.901Z,20.01
2023-05-20T18:19:45.113Z,20.030001
2023-05-20T18:23:10.314Z,20.030001
2023-05-20T18:26:35.478Z,20.02
2023-05-20T18:30:00.690Z,20
2023-05-20T18:33:25.963Z,19.950001
2023-05-20T18:36:51.145Z,19.870001
2023-05-20T18:40:16.296Z,19.83
2023-05-20T18:43:41.493Z,19.77
2023-05-20T18:47:06.681Z,19.719999
2023-05-20T18:50:31.927Z,19.68
2023-05-20T18:53:57.127Z,19.639999
2023-05-20T18:57:22.312Z,19.58
2023-05-20T19:00:47.490Z,19.540001
2023-05-20T19:04:12.816Z,19.51
2023-05-20T19:07:37.872Z,19.469999
2023-05-20T19:11:03.068Z,19.389999
2023-05-20T19:14:28.271Z,19.34
2023-05-20T19:17:53.511Z,19.299999
2023-05-20T19:21:18.668Z,19.25
2023-05-20T19:24:43.848Z,19.219999
2023-05-20T19:28:09.131Z,19.200001
2023-05-20T19:31:34.259Z,19.18
2023-05-20T19:34:59.471Z,19.190001
2023-05-20T19:38:24.669Z,19.18
2023-05-20T19:41:49.846Z,19.139999
2023-05-20T19:45:15.095Z,19.08
2023-05-20T19:48:40.257Z,19.040001
2023-05-20T19:52:05.440Z,19.01
2023-05-20T19:55:30.688Z,18.959999
2023-05-20T19:58:55.912Z,18.91
2023-05-20T20:02:21.160Z,18.879999
2023-05-20T20:05:46.353Z,18.83
2023-05-20T20:09:11.487Z,18.799999
2023-05-20T20:12:36.704Z,18.77
2023-05-20T20:16:01.921Z,18.690001
2023-05-20T20:19:27.952Z,18.610001
2023-05-20T20:22:53.079Z,18.51
2023-05-20T20:26:18.276Z,18.41
2023-05-20T20:29:43.483Z,18.309999
2023-05-20T20:33:08.690Z,18.209999
2023-05-20T20:36:33.851Z,18.110001
2023-05-20T20:39:59.014Z,18.01
2023-05-20T20:43:24.208Z,17.93
2023-05-20T20:46:49.433Z,17.870001
2023-05-20T20:50:14.625Z,17.780001
2023-05-20T20:53:39.847Z,17.700001
2023-05-20T20:57:05.046Z,17.66
2023-05-20T21:00:30.187Z,17.610001
2023-05-20T21:03:55.415Z,17.559999
2023-05-20T21:07:20.599Z,17.540001
2023-05-20T21:10:45.890Z,17.51
2023-05-20T21:14:10.968Z,17.49
2023-05-20T21:17:36.173Z,17.48
2023-05-20T21:21:01.333Z,17.450001
2023-05-20T21:24:26.535Z,17.450001
2023-05-20T21:27:51.753Z,17.41
2023-05-20T21:31:16.950Z,17.389999
2023-05-20T21:34:42.103Z,17.379999
2023-05-20T21:38:07.313Z,17.35
2023-05-20T21:41:32.505Z,17.35
2023-05-20T21:44:57.754Z,17.34
2023-05-20T21:48:22.956Z,17.33
2023-05-20T21:51:48.149Z,17.309999
2023-05-20T21:55:13.362Z,17.33
2023-05-20T21:58:38.547Z,17.360001
2023-05-20T22:02:03.915Z,17.389999
2023-05-20T22:05:28.952Z,17.43
2023-05-20T22:08:54.144Z,17.4
2023-05-20T22:12:19.348Z,17.389999
2023-05-20T22:15:44.565Z,17.389999
2023-05-20T22:19:09.801Z,17.370001
2023-05-20T22:22:34.942Z,17.379999
2023-05-20T22:26:00.159Z,17.35
2023-05-20T22:29:25.371Z,17.33
2023-05-20T22:32:50.618Z,17.299999
2023-05-20T22:36:15.798Z,17.280001
2023-05-20T22:39:40.961Z,17.26
2023-05-20T22:43:06.183Z,17.23
2023-05-20T22:46:31.411Z,17.18
2023-05-20T22:49:56.553Z,17.1
2023-05-20T22:53:21.822Z,16.98
2023-05-20T22:56:46.994Z,16.91
2023-05-20T23:00:12.191Z,16.870001
2023-05-20T23:03:37.413Z,16.879999
2023-05-20T23:07:02.628Z,16.9
2023-05-20T23:10:27.812Z,16.91
2023-05-20T23:13:52.982Z,16.91
2023-05-20T23:17:18.178Z,16.92
2023-05-20T23:20:43.393Z,16.879999
2023-05-20T23:24:08.600Z,16.85
2023-05-20T23:27:33.817Z,16.809999
2023-05-20T23:30:59.002Z,16.799999
2023-05-20T23:34:25.609Z,16.77
2023-05-20T23:37:50.839Z,16.74
2023-05-20T23:41:16.091Z,16.709999
2023-05-20T23:44:41.331Z,16.66
2023-05-20T23:48:06.484Z,16.57
2023-05-20T23:51:31.680Z,16.51
2023-05-20T23:54:56.883Z,16.5
2023-05-20T23:58:22.084Z,16.530001
